Time;durP1;ratioP1;P1;durP2;ratioP2;P2;SDS_P1;SDS_P2;PMS_P1;PMS_P2;Temp;Humidity;BMP_temperature;BMP_pressure;BME280_temperature;BME280_humidity;BME280_pressure;Samples;Min_cycle;Max_cycle;Signal;HPM_P1;HPM_P2
2023/04/08 00:08:10;;;;;;;24.5;14;;;;;;;2.9;89.4;98830;;;;
2023/04/08 00:19:11;;;;;;;28.4;16.2;;;;;;;2.8;89.5;98830;;;;
2023/04/08 00:29:10;;;;;;;28.4;16.2;;;;;;;2.5;89.6;98840;;;;
2023/04/08 00:40:11;;;;;;;28.4;16.2;;;;;;;2.4;90.1;98830;;;;
2023/04/08 00:50:11;;;;;;;26.8;16.3;;;;;;;2.1;90.2;98840;;;;
2023/04/08 01:00:11;;;;;;;26.8;16.3;;;;;;;1.8;90.7;98840;;;;
2023/04/08 01:11:11;;;;;;;26.8;16.3;;;;;;;1.5;90.6;98850;;;;
2023/04/08 01:21:10;;;;;;;23.3;13;;;;;;;1.3;91;98850;;;;
2023/04/08 01:31:10;;;;;;;23.3;13;;;;;;;1;91.4;98860;;;;
2023/04/08 01:41:10;;;;;;;23.3;13;;;;;;;0.9;91.8;98870;;;;
2023/04/08 01:51:11;;;;;;;24.6;12.9;;;;;;;0.9;91.9;98870;;;;
2023/04/08 02:02:10;;;;;;;24.6;12.9;;;;;;;0.9;92.2;98880;;;;
2023/04/08 02:12:11;;;;;;;24.6;12.9;;;;;;;1;92.4;98890;;;;
2023/04/08 02:23:11;;;;;;;25.4;13.6;;;;;;;1.2;92.4;98900;;;;
2023/04/08 02:33:11;;;;;;;25.4;13.6;;;;;;;1;92.2;98890;;;;
2023/04/08 02:44:11;;;;;;;25.4;13.6;;;;;;;0.9;91.8;98900;;;;
2023/04/08 02:55:11;;;;;;;22.9;12.1;;;;;;;1;91.9;98900;;;;
2023/04/08 03:05:11;;;;;;;22.9;12.1;;;;;;;1.2;91.9;98910;;;;
2023/04/08 03:15:11;;;;;;;22.9;12.1;;;;;;;1.2;91.9;98920;;;;
2023/04/08 03:26:11;;;;;;;21.2;12.2;;;;;;;1.3;91.7;98920;;;;
2023/04/08 03:36:11;;;;;;;21.2;12.2;;;;;;;1.2;91.3;98930;;;;
2023/04/08 03:47:10;;;;;;;16.6;10.3;;;;;;;1.2;91;98940;;;;
2023/04/08 03:57:11;;;;;;;16.6;10.3;;;;;;;1.3;90.9;98940;;;;
2023/04/08 04:08:11;;;;;;;16.6;10.3;;;;;;;1.2;90.5;98950;;;;
2023/04/08 04:19:10;;;;;;;17;8.9;;;;;;;1.1;90.3;98960;;;;
2023/04/08 04:29:10;;;;;;;17;8.9;;;;;;;1;90;98970;;;;
2023/04/08 04:39:10;;;;;;;17;8.9;;;;;;;0.9;90.1;98980;;;;
2023/04/08 04:49:11;;;;;;;18.6;9.7;;;;;;;1;90.5;99000;;;;
2023/04/08 04:59:10;;;;;;;18.6;9.7;;;;;;;1.2;91.1;99010;;;;
2023/04/08 05:10:11;;;;;;;18.6;9.7;;;;;;;1.5;91.3;99010;;;;
2023/04/08 05:20:11;;;;;;;19.7;9.9;;;;;;;1.9;91.1;99020;;;;
2023/04/08 05:30:11;;;;;;;19.7;9.9;;;;;;;2.1;90.6;99030;;;;
2023/04/08 05:40:11;;;;;;;19.7;9.9;;;;;;;2;89.7;99040;;;;
2023/04/08 05:51:11;;;;;;;17.9;9.8;;;;;;;2.3;89.1;99050;;;;
2023/04/08 06:01:11;;;;;;;17.9;9.8;;;;;;;2.6;88.6;99060;;;;
2023/04/08 06:12:11;;;;;;;17.9;9.8;;;;;;;3.1;88.2;99070;;;;
2023/04/08 06:22:11;;;;;;;16.1;10;;;;;;;3.5;85.8;99090;;;;
2023/04/08 06:32:11;;;;;;;16.1;10;;;;;;;4.3;85.1;99100;;;;
2023/04/08 06:43:11;;;;;;;16.1;10;;;;;;;4.3;82.9;99110;;;;
2023/04/08 06:54:11;;;;;;;17.9;11.2;;;;;;;4.1;82.5;99120;;;;
2023/04/08 07:04:11;;;;;;;17.9;11.2;;;;;;;4.1;81.8;99110;;;;
2023/04/08 07:14:11;;;;;;;17.9;11.2;;;;;;;4.2;81.2;99120;;;;
2023/04/08 07:25:11;;;;;;;19.1;11.1;;;;;;;4.5;81.4;99120;;;;
2023/04/08 07:36:11;;;;;;;19.1;11.1;;;;;;;4.7;80.8;99130;;;;
2023/04/08 07:46:11;;;;;;;13.5;9.7;;;;;;;4.5;79.9;99140;;;;
2023/04/08 07:56:11;;;;;;;13.5;9.7;;;;;;;5;80.1;99140;;;;
2023/04/08 08:06:11;;;;;;;13.5;9.7;;;;;;;5.6;79.1;99150;;;;
2023/04/08 08:17:11;;;;;;;13.6;9;;;;;;;5.8;78.9;99150;;;;
2023/04/08 08:27:11;;;;;;;13.6;9;;;;;;;6.5;77.3;99150;;;;
2023/04/08 08:38:12;;;;;;;13.6;9;;;;;;;6.6;74.7;99160;;;;
2023/04/08 08:49:11;;;;;;;11.4;10.1;;;;;;;7.2;74.8;99160;;;;
2023/04/08 09:00:12;;;;;;;11.4;10.1;;;;;;;7;73.4;99170;;;;
2023/04/08 09:11:11;;;;;;;11.4;10.1;;;;;;;7.9;71.7;99160;;;;
2023/04/08 09:22:11;;;;;;;13.1;10.1;;;;;;;7.9;72.5;99180;;;;
2023/04/08 09:33:11;;;;;;;13.1;10.1;;;;;;;7.7;73.4;99180;;;;
2023/04/08 09:44:11;;;;;;;13.1;10.1;;;;;;;8.3;71.2;99190;;;;
2023/04/08 09:54:11;;;;;;;16.4;10.7;;;;;;;8;71.3;99190;;;;
2023/04/08 10:04:11;;;;;;;16.4;10.7;;;;;;;8.7;70.2;99190;;;;
2023/04/08 10:14:11;;;;;;;16.4;10.7;;;;;;;9;69;99200;;;;
2023/04/08 10:25:11;;;;;;;18.3;12.9;;;;;;;8.9;67.7;99200;;;;
2023/04/08 10:36:11;;;;;;;18.3;12.9;;;;;;;8.7;69.1;99200;;;;
2023/04/08 10:46:11;;;;;;;21.2;17.2;;;;;;;8.5;69.6;99210;;;;
2023/04/08 10:57:11;;;;;;;21.2;17.2;;;;;;;7.1;73.1;99220;;;;
2023/04/08 11:07:11;;;;;;;21.2;17.2;;;;;;;6.7;74.9;99220;;;;
2023/04/08 11:17:11;;;;;;;20.9;16.1;;;;;;;6.8;74.7;99210;;;;
2023/04/08 11:27:11;;;;;;;20.9;16.1;;;;;;;6.7;75.5;99210;;;;
2023/04/08 11:37:11;;;;;;;20.9;16.1;;;;;;;7.1;75.2;99210;;;;
2023/04/08 11:47:11;;;;;;;22.6;17.3;;;;;;;7;75.3;99210;;;;
2023/04/08 11:58:11;;;;;;;22.6;17.3;;;;;;;7;75.8;99210;;;;
2023/04/08 12:09:11;;;;;;;22.6;17.3;;;;;;;6.7;77.4;99210;;;;
2023/04/08 12:19:11;;;;;;;20.4;15.6;;;;;;;6.7;76.8;99210;;;;
2023/04/08 12:29:11;;;;;;;20.4;15.6;;;;;;;6.9;77.9;99200;;;;
2023/04/08 12:39:11;;;;;;;20.4;15.6;;;;;;;6.8;78.3;99200;;;;
2023/04/08 12:49:11;;;;;;;29;21.8;;;;;;;6.7;78.5;99210;;;;
2023/04/08 13:00:11;;;;;;;29;21.8;;;;;;;6.9;78.1;99210;;;;
2023/04/08 13:10:11;;;;;;;29;21.8;;;;;;;6.9;77.9;99210;;;;
2023/04/08 13:20:11;;;;;;;22.2;17.7;;;;;;;6.9;78.2;99210;;;;
2023/04/08 13:30:11;;;;;;;22.2;17.7;;;;;;;7.1;77.7;99210;;;;
2023/04/08 13:41:11;;;;;;;22.2;17.7;;;;;;;7.4;77.6;99200;;;;
2023/04/08 13:52:11;;;;;;;24.3;17.8;;;;;;;7.9;77;99190;;;;
2023/04/08 14:02:11;;;;;;;24.3;17.8;;;;;;;8.2;76.3;99190;;;;
2023/04/08 14:13:11;;;;;;;24.3;17.8;;;;;;;8.1;75.8;99190;;;;
2023/04/08 14:24:11;;;;;;;28.7;21.4;;;;;;;8.8;74.2;99190;;;;
2023/04/08 14:34:11;;;;;;;28.7;21.4;;;;;;;8.5;73.1;99190;;;;
2023/04/08 14:44:11;;;;;;;28.7;21.4;;;;;;;8.5;73.9;99200;;;;
2023/04/08 14:55:11;;;;;;;20.2;16.9;;;;;;;8.2;74.2;99200;;;;
2023/04/08 15:05:11;;;;;;;20.2;16.9;;;;;;;8.3;73.7;99200;;;;
2023/04/08 15:15:11;;;;;;;27.6;22.6;;;;;;;8.2;74.3;99200;;;;
2023/04/08 15:26:11;;;;;;;27.6;22.6;;;;;;;8.2;73.1;99200;;;;
2023/04/08 15:36:12;;;;;;;27.6;22.6;;;;;;;8;74.1;99200;;;;
2023/04/08 15:47:11;;;;;;;22.1;17.1;;;;;;;8.3;73.6;99200;;;;
2023/04/08 15:57:11;;;;;;;22.1;17.1;;;;;;;8.4;73.5;99200;;;;
2023/04/08 16:07:12;;;;;;;22.1;17.1;;;;;;;8.7;72.6;99200;;;;
2023/04/08 16:17:11;;;;;;;24.2;18.7;;;;;;;8.6;72.6;99210;;;;
2023/04/08 16:28:11;;;;;;;24.2;18.7;;;;;;;8.3;72.4;99210;;;;
2023/04/08 16:38:11;;;;;;;24.2;18.7;;;;;;;8;73.6;99210;;;;
2023/04/08 16:49:11;;;;;;;29.3;22.4;;;;;;;7.7;74.8;99220;;;;
2023/04/08 17:00:11;;;;;;;29.3;22.4;;;;;;;7.5;75.4;99230;;;;
2023/04/08 17:11:11;;;;;;;29.3;22.4;;;;;;;7.2;76.6;99240;;;;
2023/04/08 17:21:12;;;;;;;36.2;23.8;;;;;;;6.9;77.9;99250;;;;
2023/04/08 17:31:11;;;;;;;36.2;23.8;;;;;;;6.8;78.5;99250;;;;
2023/04/08 17:42:11;;;;;;;36.2;23.8;;;;;;;6.7;78.4;99260;;;;
2023/04/08 17:52:12;;;;;;;41.9;24.3;;;;;;;6.6;78.4;99270;;;;
2023/04/08 18:02:12;;;;;;;41.9;24.3;;;;;;;6.4;78.6;99280;;;;
2023/04/08 18:13:11;;;;;;;41.9;24.3;;;;;;;6.2;79.2;99290;;;;
2023/04/08 18:23:11;;;;;;;54;28.8;;;;;;;6.1;79.6;99290;;;;
2023/04/08 18:33:11;;;;;;;54;28.8;;;;;;;6;80;99310;;;;
2023/04/08 18:43:12;;;;;;;54;28.8;;;;;;;6;80.7;99310;;;;
2023/04/08 18:53:11;;;;;;;35.6;21.2;;;;;;;5.9;81;99310;;;;
2023/04/08 19:03:11;;;;;;;35.6;21.2;;;;;;;5.9;81.2;99310;;;;
2023/04/08 19:13:11;;;;;;;35.6;21.2;;;;;;;5.9;81.4;99320;;;;
2023/04/08 19:23:11;;;;;;;25.4;16.8;;;;;;;5.9;81.8;99320;;;;
2023/04/08 19:34:11;;;;;;;25.4;16.8;;;;;;;5.9;82;99320;;;;
2023/04/08 19:44:11;;;;;;;25.4;16.8;;;;;;;5.9;82.3;99320;;;;
2023/04/08 19:54:11;;;;;;;43.8;26.1;;;;;;;5.9;82.3;99320;;;;
2023/04/08 20:04:11;;;;;;;43.8;26.1;;;;;;;5.8;82.5;99320;;;;
2023/04/08 20:15:11;;;;;;;44.3;26.8;;;;;;;5.8;82.8;99320;;;;
2023/04/08 20:26:11;;;;;;;44.3;26.8;;;;;;;5.7;83.3;99320;;;;
2023/04/08 20:36:12;;;;;;;44.3;26.8;;;;;;;5.7;83.1;99310;;;;
2023/04/08 20:46:11;;;;;;;36.6;22.9;;;;;;;5.6;83;99310;;;;
2023/04/08 20:57:11;;;;;;;36.6;22.9;;;;;;;5.4;82.8;99320;;;;
2023/04/08 21:07:11;;;;;;;36.6;22.9;;;;;;;5.3;83.3;99320;;;;
2023/04/08 21:17:11;;;;;;;64.1;31.2;;;;;;;5.1;83.8;99320;;;;
2023/04/08 21:28:11;;;;;;;64.1;31.2;;;;;;;5.1;84.3;99320;;;;
2023/04/08 21:38:11;;;;;;;64.1;31.2;;;;;;;5.1;84.5;99330;;;;
2023/04/08 21:48:12;;;;;;;48.2;28.8;;;;;;;5;84.7;99330;;;;
2023/04/08 21:58:11;;;;;;;48.2;28.8;;;;;;;5;85;99320;;;;
2023/04/08 22:08:12;;;;;;;48.2;28.8;;;;;;;5;85;99320;;;;
2023/04/08 22:18:12;;;;;;;40;24.6;;;;;;;5;85;99320;;;;
2023/04/08 22:29:12;;;;;;;40;24.6;;;;;;;4.9;84.9;99310;;;;
2023/04/08 22:40:12;;;;;;;40;24.6;;;;;;;4.8;85;99320;;;;
2023/04/08 22:50:11;;;;;;;38.4;22.8;;;;;;;4.9;85.3;99320;;;;
2023/04/08 23:00:12;;;;;;;38.4;22.8;;;;;;;4.9;85.4;99330;;;;
2023/04/08 23:11:12;;;;;;;38.4;22.8;;;;;;;4.8;85.5;99320;;;;
2023/04/08 23:21:11;;;;;;;38.4;21.6;;;;;;;4.9;85.7;99310;;;;
2023/04/08 23:31:12;;;;;;;38.4;21.6;;;;;;;4.9;85.5;99310;;;;
2023/04/08 23:41:11;;;;;;;38.4;21.6;;;;;;;4.8;85.3;99310;;;;
2023/04/08 23:51:12;;;;;;;40.8;23.6;;;;;;;4.8;85.1;99310;;;;
